LHSM Airport Information

Runway Information
Runway 16 Length 8202 ft width 197 ft
Elevation 408 ft Threshold 0 ft Heading 165
Runway 34 Length 8202 ft Width 197 ft
Elevation 399 ft Threshold 0 ft Heading 345
Runway 17R Length 3100 ft width 212 ft
Elevation 0 ft Threshold 0 ft Heading 167
Runway 35L Length 3100 ft Width 212 ft
Elevation 0 ft Threshold 0 ft Heading 347
Airport Frequencies
Type AFIS Name INFO Frequency 127.6 MHZ
Type TWR Name TWR Frequency 127.6 MHZ
Airport Navaids
Type NDB Name Sarmellek Frequency 428 KHZ
Airport Weather Information & NOTAM
ADDS - METARS form results

(2253 UTC 18 February 2019)
Data provider http://aviationweather.gov/metar/data/
 
Forecast for: LHSM (BALATON , HU)
Text: TAF LHSM 181115Z 1812/1821 VRB02KT CAVOK
Forecast period: 1200 to 2100 UTC 18 February 2019
Forecast type: FROM: standard forecast or significant change
Winds: variable direction winds at 2 MPH (2 knots; 1.0 m/s)
Visibility: 6 or more miles 10+ km)
Ceiling: unknown
Clouds: missing
Weather: NSW  (no significant weather)